sensor_id;sensor_type;location;lat;lon;timestamp;pressure;altitude;pressure_sealevel;temperature;humidity
48216;BME280;34005;48.844;10.098;2024-03-08T00:00:01;96607.91;;;3.84;65.37
48216;BME280;34005;48.844;10.098;2024-03-08T00:02:36;96609.03;;;3.82;65.22
48216;BME280;34005;48.844;10.098;2024-03-08T00:05:06;96616.09;;;3.80;65.42
48216;BME280;34005;48.844;10.098;2024-03-08T00:07:35;96606.06;;;3.77;65.29
48216;BME280;34005;48.844;10.098;2024-03-08T00:10:03;96613.13;;;3.75;65.54
48216;BME280;34005;48.844;10.098;2024-03-08T00:12:30;96600.63;;;3.70;65.35
48216;BME280;34005;48.844;10.098;2024-03-08T00:14:58;96601.44;;;3.70;65.75
48216;BME280;34005;48.844;10.098;2024-03-08T00:17:26;96599.78;;;3.69;65.27
48216;BME280;34005;48.844;10.098;2024-03-08T00:19:54;96600.22;;;3.65;65.30
48216;BME280;34005;48.844;10.098;2024-03-08T00:22:23;96598.72;;;3.62;65.34
48216;BME280;34005;48.844;10.098;2024-03-08T00:24:51;96602.13;;;3.63;65.41
48216;BME280;34005;48.844;10.098;2024-03-08T00:27:18;96601.31;;;3.62;65.40
48216;BME280;34005;48.844;10.098;2024-03-08T00:29:47;96591.16;;;3.61;65.45
48216;BME280;34005;48.844;10.098;2024-03-08T00:32:15;96591.28;;;3.59;65.51
48216;BME280;34005;48.844;10.098;2024-03-08T00:34:43;96589.63;;;3.58;65.72
48216;BME280;34005;48.844;10.098;2024-03-08T00:37:11;96588.97;;;3.56;65.46
48216;BME280;34005;48.844;10.098;2024-03-08T00:39:39;96584.78;;;3.55;65.44
48216;BME280;34005;48.844;10.098;2024-03-08T00:42:07;96584.91;;;3.54;65.43
48216;BME280;34005;48.844;10.098;2024-03-08T00:44:35;96574.06;;;3.50;65.58
48216;BME280;34005;48.844;10.098;2024-03-08T00:47:02;96577.88;;;3.46;65.62
48216;BME280;34005;48.844;10.098;2024-03-08T00:49:31;96566.19;;;3.42;65.79
48216;BME280;34005;48.844;10.098;2024-03-08T00:51:58;96564.56;;;3.41;66.27
48216;BME280;34005;48.844;10.098;2024-03-08T00:54:26;96568.09;;;3.40;66.22
48216;BME280;34005;48.844;10.098;2024-03-08T00:56:55;96573.38;;;3.38;66.19
48216;BME280;34005;48.844;10.098;2024-03-08T00:59:22;96566.19;;;3.32;66.36
48216;BME280;34005;48.844;10.098;2024-03-08T01:01:50;96563.78;;;3.30;66.55
48216;BME280;34005;48.844;10.098;2024-03-08T01:04:17;96561.88;;;3.33;66.31
48216;BME280;34005;48.844;10.098;2024-03-08T01:06:46;96556.97;;;3.29;66.24
48216;BME280;34005;48.844;10.098;2024-03-08T01:09:14;96559.53;;;3.29;66.74
48216;BME280;34005;48.844;10.098;2024-03-08T01:11:43;96554.38;;;3.29;66.86
48216;BME280;34005;48.844;10.098;2024-03-08T01:14:12;96560.91;;;3.34;66.99
48216;BME280;34005;48.844;10.098;2024-03-08T01:16:40;96547.72;;;3.37;66.85
48216;BME280;34005;48.844;10.098;2024-03-08T01:19:08;96541.34;;;3.41;66.59
48216;BME280;34005;48.844;10.098;2024-03-08T01:21:35;96548.81;;;3.44;67.28
48216;BME280;34005;48.844;10.098;2024-03-08T01:24:03;96545.97;;;3.47;66.64
48216;BME280;34005;48.844;10.098;2024-03-08T01:26:31;96541.59;;;3.47;67.56
48216;BME280;34005;48.844;10.098;2024-03-08T01:29:00;96531.16;;;3.49;67.33
48216;BME280;34005;48.844;10.098;2024-03-08T01:31:30;96536.06;;;3.52;67.79
48216;BME280;34005;48.844;10.098;2024-03-08T01:33:58;96530.31;;;3.58;68.79
48216;BME280;34005;48.844;10.098;2024-03-08T01:36:26;96541.72;;;3.65;68.27
48216;BME280;34005;48.844;10.098;2024-03-08T01:38:54;96523.78;;;3.64;67.82
48216;BME280;34005;48.844;10.098;2024-03-08T01:41:21;96520.00;;;3.58;66.78
48216;BME280;34005;48.844;10.098;2024-03-08T01:43:49;96514.31;;;3.55;66.57
48216;BME280;34005;48.844;10.098;2024-03-08T06:45:33;96347.59;;;2.88;69.18
48216;BME280;34005;48.844;10.098;2024-03-08T06:48:04;96346.00;;;2.87;69.28
48216;BME280;34005;48.844;10.098;2024-03-08T06:50:37;96344.09;;;2.89;69.08
48216;BME280;34005;48.844;10.098;2024-03-08T06:53:04;96349.91;;;2.92;69.55
48216;BME280;34005;48.844;10.098;2024-03-08T06:55:32;96345.81;;;2.99;69.68
48216;BME280;34005;48.844;10.098;2024-03-08T06:58:00;96350.97;;;3.08;69.97
48216;BME280;34005;48.844;10.098;2024-03-08T07:00:27;96346.19;;;3.14;70.31
48216;BME280;34005;48.844;10.098;2024-03-08T07:02:58;96343.84;;;3.20;70.48
48216;BME280;34005;48.844;10.098;2024-03-08T07:05:27;96342.31;;;3.27;70.22
48216;BME280;34005;48.844;10.098;2024-03-08T07:07:57;96341.75;;;3.34;69.94
48216;BME280;34005;48.844;10.098;2024-03-08T07:10:25;96345.81;;;3.36;69.45
48216;BME280;34005;48.844;10.098;2024-03-08T07:12:53;96343.91;;;3.38;69.78
48216;BME280;34005;48.844;10.098;2024-03-08T07:15:21;96337.38;;;3.44;70.44
48216;BME280;34005;48.844;10.098;2024-03-08T07:17:49;96336.28;;;3.46;70.02
48216;BME280;34005;48.844;10.098;2024-03-08T07:20:21;96337.75;;;3.49;69.72
48216;BME280;34005;48.844;10.098;2024-03-08T07:22:48;96342.09;;;3.48;68.85
48216;BME280;34005;48.844;10.098;2024-03-08T07:25:17;96336.72;;;3.42;68.21
48216;BME280;34005;48.844;10.098;2024-03-08T07:27:50;96331.00;;;3.38;68.69
48216;BME280;34005;48.844;10.098;2024-03-08T07:30:18;96324.09;;;3.39;68.73
48216;BME280;34005;48.844;10.098;2024-03-08T07:33:00;96323.03;;;3.32;67.88
48216;BME280;34005;48.844;10.098;2024-03-08T07:35:30;96318.75;;;3.22;67.99
48216;BME280;34005;48.844;10.098;2024-03-08T07:37:58;96322.44;;;3.20;68.50
48216;BME280;34005;48.844;10.098;2024-03-08T07:40:27;96311.16;;;3.21;69.28
48216;BME280;34005;48.844;10.098;2024-03-08T07:42:54;96320.66;;;3.20;68.44
48216;BME280;34005;48.844;10.098;2024-03-08T07:45:23;96320.13;;;3.17;68.84
48216;BME280;34005;48.844;10.098;2024-03-08T07:47:50;96312.25;;;3.18;68.69
48216;BME280;34005;48.844;10.098;2024-03-08T07:50:20;96311.94;;;3.21;68.93
48216;BME280;34005;48.844;10.098;2024-03-08T07:52:50;96313.47;;;3.24;70.25
48216;BME280;34005;48.844;10.098;2024-03-08T07:55:18;96311.56;;;3.26;69.28
48216;BME280;34005;48.844;10.098;2024-03-08T07:57:45;96311.03;;;3.22;69.00
48216;BME280;34005;48.844;10.098;2024-03-08T08:00:15;96312.78;;;3.22;68.88
48216;BME280;34005;48.844;10.098;2024-03-08T08:02:45;96313.47;;;3.24;69.44
48216;BME280;34005;48.844;10.098;2024-03-08T08:05:12;96301.38;;;3.24;68.89
48216;BME280;34005;48.844;10.098;2024-03-08T08:07:43;96309.09;;;3.24;69.84
48216;BME280;34005;48.844;10.098;2024-03-08T08:10:15;96307.88;;;3.28;69.45
48216;BME280;34005;48.844;10.098;2024-03-08T08:12:45;96303.53;;;3.29;69.68
48216;BME280;34005;48.844;10.098;2024-03-08T08:15:13;96306.91;;;3.29;69.04
48216;BME280;34005;48.844;10.098;2024-03-08T08:17:42;96301.38;;;3.24;68.27
48216;BME280;34005;48.844;10.098;2024-03-08T08:20:10;96303.72;;;3.18;68.58
48216;BME280;34005;48.844;10.098;2024-03-08T08:22:38;96303.84;;;3.16;68.33
48216;BME280;34005;48.844;10.098;2024-03-08T08:25:07;96296.25;;;3.15;68.55
48216;BME280;34005;48.844;10.098;2024-03-08T08:27:36;96300.34;;;3.17;68.71
48216;BME280;34005;48.844;10.098;2024-03-08T08:30:05;96292.72;;;3.16;68.93
48216;BME280;34005;48.844;10.098;2024-03-08T08:32:34;96293.28;;;3.19;68.48
48216;BME280;34005;48.844;10.098;2024-03-08T08:35:04;96288.91;;;3.20;69.08
48216;BME280;34005;48.844;10.098;2024-03-08T08:37:32;96287.00;;;3.22;69.03
48216;BME280;34005;48.844;10.098;2024-03-08T08:40:00;96280.75;;;3.24;68.77
48216;BME280;34005;48.844;10.098;2024-03-08T08:42:32;96275.59;;;3.24;68.38
48216;BME280;34005;48.844;10.098;2024-03-08T08:45:01;96284.00;;;3.26;68.59
48216;BME280;34005;48.844;10.098;2024-03-08T08:47:41;96273.38;;;3.29;68.12
48216;BME280;34005;48.844;10.098;2024-03-08T08:50:09;96273.13;;;3.33;69.09
48216;BME280;34005;48.844;10.098;2024-03-08T08:52:38;96278.06;;;3.44;69.38
48216;BME280;34005;48.844;10.098;2024-03-08T08:55:07;96280.44;;;3.55;69.47
48216;BME280;34005;48.844;10.098;2024-03-08T08:57:35;96287.59;;;3.61;68.54
48216;BME280;34005;48.844;10.098;2024-03-08T09:00:05;96276.97;;;3.64;69.57
48216;BME280;34005;48.844;10.098;2024-03-08T09:02:34;96283.84;;;3.74;69.69
48216;BME280;34005;48.844;10.098;2024-03-08T09:05:04;96279.06;;;3.79;68.81
48216;BME280;34005;48.844;10.098;2024-03-08T09:07:32;96271.16;;;3.80;68.12
48216;BME280;34005;48.844;10.098;2024-03-08T09:10:00;96273.72;;;3.80;67.19
48216;BME280;34005;48.844;10.098;2024-03-08T09:12:43;96275.81;;;3.77;67.34
48216;BME280;34005;48.844;10.098;2024-03-08T09:15:12;96273.69;;;3.72;68.21
48216;BME280;34005;48.844;10.098;2024-03-08T09:17:40;96268.00;;;3.68;67.58
48216;BME280;34005;48.844;10.098;2024-03-08T09:20:09;96264.88;;;3.65;67.62
48216;BME280;34005;48.844;10.098;2024-03-08T09:22:43;96273.47;;;3.65;67.71
48216;BME280;34005;48.844;10.098;2024-03-08T09:25:11;96262.84;;;3.68;67.44
48216;BME280;34005;48.844;10.098;2024-03-08T09:27:39;96266.75;;;3.72;68.16
48216;BME280;34005;48.844;10.098;2024-03-08T09:30:08;96255.00;;;3.78;69.16
48216;BME280;34005;48.844;10.098;2024-03-08T09:32:37;96254.28;;;3.86;68.66
48216;BME280;34005;48.844;10.098;2024-03-08T09:35:05;96248.00;;;3.88;68.39
48216;BME280;34005;48.844;10.098;2024-03-08T09:37:34;96253.56;;;3.94;68.01
48216;BME280;34005;48.844;10.098;2024-03-08T09:40:02;96254.72;;;3.99;67.69
48216;BME280;34005;48.844;10.098;2024-03-08T09:42:35;96245.72;;;4.03;67.07
48216;BME280;34005;48.844;10.098;2024-03-08T09:45:08;96246.91;;;4.09;67.60
48216;BME280;34005;48.844;10.098;2024-03-08T09:47:39;96245.47;;;4.15;67.03
48216;BME280;34005;48.844;10.098;2024-03-08T09:50:08;96245.81;;;4.20;66.71
48216;BME280;34005;48.844;10.098;2024-03-08T09:52:36;96250.19;;;4.19;66.66
48216;BME280;34005;48.844;10.098;2024-03-08T09:55:05;96240.97;;;4.17;66.54
48216;BME280;34005;48.844;10.098;2024-03-08T09:57:33;96234.56;;;4.21;67.56
48216;BME280;34005;48.844;10.098;2024-03-08T10:00:04;96241.69;;;4.27;66.91
48216;BME280;34005;48.844;10.098;2024-03-08T10:02:46;96235.41;;;4.29;66.43
48216;BME280;34005;48.844;10.098;2024-03-08T10:05:14;96232.06;;;4.37;66.59
48216;BME280;34005;48.844;10.098;2024-03-08T10:07:41;96225.38;;;4.52;66.41
48216;BME280;34005;48.844;10.098;2024-03-08T10:10:09;96221.63;;;4.73;67.12
48216;BME280;34005;48.844;10.098;2024-03-08T10:12:38;96222.38;;;5.00;68.37
48216;BME280;34005;48.844;10.098;2024-03-08T10:15:07;96223.09;;;5.26;66.38
48216;BME280;34005;48.844;10.098;2024-03-08T10:17:35;96217.97;;;5.43;65.32
48216;BME280;34005;48.844;10.098;2024-03-08T10:20:13;96223.50;;;5.56;63.91
48216;BME280;34005;48.844;10.098;2024-03-08T10:22:42;96220.25;;;5.70;63.95
48216;BME280;34005;48.844;10.098;2024-03-08T10:25:24;96225.59;;;5.77;63.68
48216;BME280;34005;48.844;10.098;2024-03-08T10:27:51;96226.75;;;5.74;63.09
48216;BME280;34005;48.844;10.098;2024-03-08T10:30:19;96216.06;;;5.69;63.05
48216;BME280;34005;48.844;10.098;2024-03-08T10:32:48;96211.69;;;5.70;63.68
48216;BME280;34005;48.844;10.098;2024-03-08T10:35:17;96222.72;;;5.88;63.11
48216;BME280;34005;48.844;10.098;2024-03-08T10:37:48;96221.94;;;6.04;62.64
48216;BME280;34005;48.844;10.098;2024-03-08T10:40:26;96221.28;;;6.10;62.34
48216;BME280;34005;48.844;10.098;2024-03-08T10:42:56;96216.75;;;6.21;62.32
48216;BME280;34005;48.844;10.098;2024-03-08T10:45:34;96214.72;;;6.55;61.40
48216;BME280;34005;48.844;10.098;2024-03-08T10:50:56;96212.34;;;7.33;59.40
48216;BME280;34005;48.844;10.098;2024-03-08T10:53:27;96220.31;;;7.54;59.30
48216;BME280;34005;48.844;10.098;2024-03-08T10:55:56;96210.28;;;7.74;58.62
48216;BME280;34005;48.844;10.098;2024-03-08T10:58:25;96211.84;;;7.83;57.14
48216;BME280;34005;48.844;10.098;2024-03-08T11:00:54;96204.16;;;7.90;57.80
48216;BME280;34005;48.844;10.098;2024-03-08T11:03:46;96201.66;;;8.20;56.64
48216;BME280;34005;48.844;10.098;2024-03-08T11:06:18;96199.91;;;8.50;56.61
48216;BME280;34005;48.844;10.098;2024-03-08T11:08:49;96202.22;;;8.90;56.01
48216;BME280;34005;48.844;10.098;2024-03-08T11:11:24;96190.06;;;9.26;53.83
48216;BME280;34005;48.844;10.098;2024-03-08T11:14:00;96189.06;;;9.64;54.17
48216;BME280;34005;48.844;10.098;2024-03-08T11:16:47;96185.09;;;9.89;51.66
48216;BME280;34005;48.844;10.098;2024-03-08T11:19:24;96174.03;;;10.09;51.44
48216;BME280;34005;48.844;10.098;2024-03-08T11:22:00;96166.47;;;10.42;50.94
48216;BME280;34005;48.844;10.098;2024-03-08T11:24:37;96166.47;;;10.84;52.85
48216;BME280;34005;48.844;10.098;2024-03-08T11:27:06;96154.41;;;11.24;50.87
48216;BME280;34005;48.844;10.098;2024-03-08T11:29:36;96148.03;;;11.53;49.45
48216;BME280;34005;48.844;10.098;2024-03-08T11:32:05;96165.13;;;11.69;48.40
48216;BME280;34005;48.844;10.098;2024-03-08T11:34:32;96150.66;;;11.80;48.65
48216;BME280;34005;48.844;10.098;2024-03-08T11:37:03;96156.53;;;12.02;46.91
48216;BME280;34005;48.844;10.098;2024-03-08T11:39:31;96147.88;;;12.28;48.01
48216;BME280;34005;48.844;10.098;2024-03-08T11:41:59;96142.19;;;12.58;46.72
48216;BME280;34005;48.844;10.098;2024-03-08T11:44:27;96138.50;;;12.86;48.07
48216;BME280;34005;48.844;10.098;2024-03-08T11:46:55;96131.66;;;13.23;46.68
48216;BME280;34005;48.844;10.098;2024-03-08T11:49:22;96132.28;;;13.57;45.56
48216;BME280;34005;48.844;10.098;2024-03-08T11:51:52;96123.59;;;13.88;44.03
48216;BME280;34005;48.844;10.098;2024-03-08T11:54:21;96119.00;;;14.09;44.55
48216;BME280;34005;48.844;10.098;2024-03-08T11:56:51;96122.69;;;14.26;42.58
48216;BME280;34005;48.844;10.098;2024-03-08T11:59:19;96112.19;;;14.45;43.02
48216;BME280;34005;48.844;10.098;2024-03-08T12:02:01;96107.13;;;14.68;41.34
48216;BME280;34005;48.844;10.098;2024-03-08T12:04:29;96104.19;;;14.95;42.72
48216;BME280;34005;48.844;10.098;2024-03-08T12:06:59;96095.38;;;15.19;41.23
48216;BME280;34005;48.844;10.098;2024-03-08T12:09:29;96100.00;;;15.36;40.60
48216;BME280;34005;48.844;10.098;2024-03-08T12:11:58;96091.91;;;15.37;39.88
48216;BME280;34005;48.844;10.098;2024-03-08T12:14:26;96093.69;;;15.25;40.28
48216;BME280;34005;48.844;10.098;2024-03-08T12:16:53;96093.56;;;15.20;40.50
48216;BME280;34005;48.844;10.098;2024-03-08T12:19:21;96082.88;;;15.03;40.42
48216;BME280;34005;48.844;10.098;2024-03-08T12:21:49;96078.09;;;14.81;40.21
48216;BME280;34005;48.844;10.098;2024-03-08T12:24:16;96077.00;;;14.52;40.43
48216;BME280;34005;48.844;10.098;2024-03-08T12:26:48;96069.84;;;14.22;40.25
48216;BME280;34005;48.844;10.098;2024-03-08T12:29:17;96077.00;;;13.90;41.06
48216;BME280;34005;48.844;10.098;2024-03-08T12:31:46;96064.91;;;13.64;41.98
48216;BME280;34005;48.844;10.098;2024-03-08T12:34:14;96064.81;;;13.52;43.00
48216;BME280;34005;48.844;10.098;2024-03-08T12:36:46;96054.22;;;13.41;42.43
48216;BME280;34005;48.844;10.098;2024-03-08T12:39:19;96059.06;;;13.37;43.72
48216;BME280;34005;48.844;10.098;2024-03-08T12:41:50;96048.00;;;13.35;42.44
48216;BME280;34005;48.844;10.098;2024-03-08T12:44:19;96050.88;;;13.20;42.08
48216;BME280;34005;48.844;10.098;2024-03-08T12:46:48;96038.13;;;12.98;43.46
48216;BME280;34005;48.844;10.098;2024-03-08T12:49:20;96037.38;;;12.91;43.24
48216;BME280;34005;48.844;10.098;2024-03-08T12:51:49;96051.50;;;12.84;43.21
48216;BME280;34005;48.844;10.098;2024-03-08T12:54:16;96029.06;;;12.63;43.40
48216;BME280;34005;48.844;10.098;2024-03-08T12:56:44;96022.50;;;12.47;43.89
48216;BME280;34005;48.844;10.098;2024-03-08T12:59:13;96026.56;;;12.29;43.51
48216;BME280;34005;48.844;10.098;2024-03-08T13:01:40;96015.78;;;11.99;44.12
48216;BME280;34005;48.844;10.098;2024-03-08T13:04:09;96004.75;;;11.77;44.48
48216;BME280;34005;48.844;10.098;2024-03-08T13:06:38;96003.16;;;11.63;44.77
48216;BME280;34005;48.844;10.098;2024-03-08T13:09:07;95998.53;;;11.51;44.88
48216;BME280;34005;48.844;10.098;2024-03-08T13:11:35;96003.97;;;11.43;44.85
48216;BME280;34005;48.844;10.098;2024-03-08T13:14:04;96005.59;;;11.31;45.09
48216;BME280;34005;48.844;10.098;2024-03-08T13:16:34;95998.75;;;11.23;46.16
48216;BME280;34005;48.844;10.098;2024-03-08T13:19:02;95996.75;;;11.25;47.34
48216;BME280;34005;48.844;10.098;2024-03-08T13:21:29;95985.50;;;11.31;45.84
48216;BME280;34005;48.844;10.098;2024-03-08T13:23:58;95996.97;;;11.37;45.98
48216;BME280;34005;48.844;10.098;2024-03-08T13:26:28;95979.84;;;11.41;45.84
48216;BME280;34005;48.844;10.098;2024-03-08T13:28:59;95975.84;;;11.45;45.98
48216;BME280;34005;48.844;10.098;2024-03-08T13:31:27;95980.25;;;11.51;45.70
48216;BME280;34005;48.844;10.098;2024-03-08T13:33:57;95974.84;;;11.53;45.77
48216;BME280;34005;48.844;10.098;2024-03-08T13:36:25;95966.22;;;11.52;45.60
48216;BME280;34005;48.844;10.098;2024-03-08T13:38:56;95973.22;;;11.52;45.52
48216;BME280;34005;48.844;10.098;2024-03-08T13:41:26;95965.59;;;11.50;45.97
48216;BME280;34005;48.844;10.098;2024-03-08T13:43:58;95946.50;;;11.50;48.87
48216;BME280;34005;48.844;10.098;2024-03-08T13:46:26;95959.16;;;11.53;46.93
48216;BME280;34005;48.844;10.098;2024-03-08T13:48:54;95945.09;;;11.47;45.97
48216;BME280;34005;48.844;10.098;2024-03-08T13:51:23;95943.53;;;11.33;45.64
48216;BME280;34005;48.844;10.098;2024-03-08T13:53:51;95936.69;;;11.19;45.74
48216;BME280;34005;48.844;10.098;2024-03-08T13:56:19;95936.69;;;11.12;45.93
48216;BME280;34005;48.844;10.098;2024-03-08T13:58:48;95933.69;;;11.08;46.20
48216;BME280;34005;48.844;10.098;2024-03-08T14:01:18;95937.13;;;11.02;46.01
48216;BME280;34005;48.844;10.098;2024-03-08T14:03:47;95936.88;;;10.97;46.22
48216;BME280;34005;48.844;10.098;2024-03-08T14:06:15;95935.28;;;10.96;46.40
48216;BME280;34005;48.844;10.098;2024-03-08T14:08:50;95934.88;;;10.99;49.42
48216;BME280;34005;48.844;10.098;2024-03-08T14:11:19;95926.69;;;11.02;47.06
48216;BME280;34005;48.844;10.098;2024-03-08T14:13:47;95915.03;;;11.05;46.61
48216;BME280;34005;48.844;10.098;2024-03-08T14:16:15;95909.19;;;11.09;46.79
48216;BME280;34005;48.844;10.098;2024-03-08T14:18:43;95909.38;;;11.14;46.98
48216;BME280;34005;48.844;10.098;2024-03-08T14:21:11;95909.38;;;11.14;46.54
48216;BME280;34005;48.844;10.098;2024-03-08T14:23:41;95901.78;;;11.13;46.12
48216;BME280;34005;48.844;10.098;2024-03-08T14:26:10;95906.78;;;11.14;46.58
48216;BME280;34005;48.844;10.098;2024-03-08T14:28:38;95902.16;;;11.17;46.39
48216;BME280;34005;48.844;10.098;2024-03-08T14:31:06;95898.16;;;11.14;46.15
48216;BME280;34005;48.844;10.098;2024-03-08T14:33:37;95895.13;;;11.10;46.85
48216;BME280;34005;48.844;10.098;2024-03-08T14:36:06;95887.09;;;11.12;46.07
48216;BME280;34005;48.844;10.098;2024-03-08T14:38:33;95884.91;;;11.09;45.66
48216;BME280;34005;48.844;10.098;2024-03-08T14:41:04;95884.09;;;11.02;45.64
48216;BME280;34005;48.844;10.098;2024-03-08T14:43:35;95885.91;;;11.01;45.73
48216;BME280;34005;48.844;10.098;2024-03-08T14:46:03;95880.69;;;11.01;45.84
48216;BME280;34005;48.844;10.098;2024-03-08T14:48:31;95875.47;;;11.01;45.65
48216;BME280;34005;48.844;10.098;2024-03-08T14:50:58;95874.47;;;11.02;45.89
48216;BME280;34005;48.844;10.098;2024-03-08T14:53:26;95876.25;;;11.02;45.92
48216;BME280;34005;48.844;10.098;2024-03-08T14:55:54;95880.09;;;10.99;45.60
48216;BME280;34005;48.844;10.098;2024-03-08T14:58:22;95869.47;;;10.94;45.63
48216;BME280;34005;48.844;10.098;2024-03-08T15:00:52;95875.47;;;10.95;46.59
48216;BME280;34005;48.844;10.098;2024-03-08T15:03:22;95874.25;;;10.97;46.27
48216;BME280;34005;48.844;10.098;2024-03-08T15:05:53;95867.44;;;10.96;45.41
48216;BME280;34005;48.844;10.098;2024-03-08T15:08:20;95866.66;;;10.89;45.19
48216;BME280;34005;48.844;10.098;2024-03-08T15:10:48;95864.44;;;10.86;45.30
48216;BME280;34005;48.844;10.098;2024-03-08T15:13:21;95856.00;;;10.84;45.27
48216;BME280;34005;48.844;10.098;2024-03-08T15:15:52;95870.44;;;10.80;45.23
48216;BME280;34005;48.844;10.098;2024-03-08T15:18:23;95861.41;;;10.76;45.59
48216;BME280;34005;48.844;10.098;2024-03-08T15:21:04;95864.84;;;10.69;44.85
48216;BME280;34005;48.844;10.098;2024-03-08T15:23:36;95864.03;;;10.62;45.25
48216;BME280;34005;48.844;10.098;2024-03-08T15:26:04;95855.81;;;10.59;45.47
48216;BME280;34005;48.844;10.098;2024-03-08T15:28:34;95853.41;;;10.57;45.78
48216;BME280;34005;48.844;10.098;2024-03-08T15:31:06;95856.41;;;10.61;46.05
48216;BME280;34005;48.844;10.098;2024-03-08T15:33:35;95842.97;;;10.64;45.73
48216;BME280;34005;48.844;10.098;2024-03-08T15:36:08;95840.97;;;10.66;46.27
48216;BME280;34005;48.844;10.098;2024-03-08T15:38:38;95836.53;;;10.66;46.05
48216;BME280;34005;48.844;10.098;2024-03-08T15:41:07;95844.19;;;10.68;45.55
48216;BME280;34005;48.844;10.098;2024-03-08T15:43:36;95837.75;;;10.70;45.54
48216;BME280;34005;48.844;10.098;2024-03-08T15:46:06;95842.56;;;10.67;45.41
48216;BME280;34005;48.844;10.098;2024-03-08T15:48:35;95834.53;;;10.62;46.15
48216;BME280;34005;48.844;10.098;2024-03-08T15:51:04;95833.75;;;10.61;45.89
48216;BME280;34005;48.844;10.098;2024-03-08T15:53:33;95833.31;;;10.64;47.48
48216;BME280;34005;48.844;10.098;2024-03-08T15:56:01;95830.34;;;10.67;48.81
48216;BME280;34005;48.844;10.098;2024-03-08T15:58:32;95828.13;;;10.71;46.88
48216;BME280;34005;48.844;10.098;2024-03-08T16:01:05;95831.31;;;10.73;46.09
48216;BME280;34005;48.844;10.098;2024-03-08T16:03:33;95829.53;;;10.74;45.90
48216;BME280;34005;48.844;10.098;2024-03-08T16:06:01;95826.94;;;10.74;45.21
48216;BME280;34005;48.844;10.098;2024-03-08T16:08:30;95819.69;;;10.62;45.15
48216;BME280;34005;48.844;10.098;2024-03-08T16:10:59;95815.69;;;10.53;44.87
48216;BME280;34005;48.844;10.098;2024-03-08T16:13:32;95820.91;;;10.46;44.81
48216;BME280;34005;48.844;10.098;2024-03-08T16:16:06;95814.69;;;10.41;45.27
48216;BME280;34005;48.844;10.098;2024-03-08T16:18:34;95809.66;;;10.33;45.44
48216;BME280;34005;48.844;10.098;2024-03-08T16:21:04;95810.41;;;10.26;45.43
48216;BME280;34005;48.844;10.098;2024-03-08T16:23:33;95808.41;;;10.22;45.49
48216;BME280;34005;48.844;10.098;2024-03-08T16:26:02;95810.81;;;10.17;46.14
48216;BME280;34005;48.844;10.098;2024-03-08T16:28:31;95805.81;;;10.15;46.23
48216;BME280;34005;48.844;10.098;2024-03-08T16:31:07;95798.97;;;10.14;45.99
48216;BME280;34005;48.844;10.098;2024-03-08T16:33:38;95802.41;;;10.15;45.97
48216;BME280;34005;48.844;10.098;2024-03-08T16:36:06;95798.97;;;10.14;46.25
48216;BME280;34005;48.844;10.098;2024-03-08T16:38:42;95799.38;;;10.11;45.84
48216;BME280;34005;48.844;10.098;2024-03-08T16:41:24;95797.19;;;10.08;45.62
48216;BME280;34005;48.844;10.098;2024-03-08T16:43:54;95798.34;;;10.05;47.70
48216;BME280;34005;48.844;10.098;2024-03-08T16:46:28;95801.38;;;10.02;46.28
48216;BME280;34005;48.844;10.098;2024-03-08T16:49:03;95795.34;;;10.02;47.68
48216;BME280;34005;48.844;10.098;2024-03-08T16:51:32;95785.91;;;10.01;46.67
48216;BME280;34005;48.844;10.098;2024-03-08T16:54:05;95784.72;;;9.97;46.37
48216;BME280;34005;48.844;10.098;2024-03-08T16:56:39;95781.69;;;9.86;45.81
48216;BME280;34005;48.844;10.098;2024-03-08T16:59:15;95772.25;;;9.79;46.52
48216;BME280;34005;48.844;10.098;2024-03-08T17:01:48;95772.22;;;9.72;47.64
48216;BME280;34005;48.844;10.098;2024-03-08T17:04:24;95774.63;;;9.67;46.36
48216;BME280;34005;48.844;10.098;2024-03-08T17:06:53;95774.63;;;9.60;46.13
48216;BME280;34005;48.844;10.098;2024-03-08T17:09:25;95765.78;;;9.55;46.09
48216;BME280;34005;48.844;10.098;2024-03-08T17:11:59;95773.38;;;9.49;45.94
48216;BME280;34005;48.844;10.098;2024-03-08T17:14:28;95762.94;;;9.43;46.22
48216;BME280;34005;48.844;10.098;2024-03-08T17:17:06;95765.31;;;9.38;46.16
48216;BME280;34005;48.844;10.098;2024-03-08T17:19:35;95766.50;;;9.35;48.54
48216;BME280;34005;48.844;10.098;2024-03-08T17:22:04;95774.31;;;9.35;47.09
48216;BME280;34005;48.844;10.098;2024-03-08T17:24:36;95773.09;;;9.31;46.77
48216;BME280;34005;48.844;10.098;2024-03-08T17:27:08;95773.09;;;9.31;47.47
48216;BME280;34005;48.844;10.098;2024-03-08T17:29:46;95770.09;;;9.27;46.93
48216;BME280;34005;48.844;10.098;2024-03-08T17:32:43;95769.84;;;9.22;46.82
48216;BME280;34005;48.844;10.098;2024-03-08T17:46:05;95765.09;;;8.91;47.64
48216;BME280;34005;48.844;10.098;2024-03-08T17:48:51;95770.25;;;8.84;47.63
48216;BME280;34005;48.844;10.098;2024-03-08T17:52:03;95772.38;;;8.74;48.48
48216;BME280;34005;48.844;10.098;2024-03-08T17:54:53;95773.16;;;8.68;48.91
48216;BME280;34005;48.844;10.098;2024-03-08T17:57:33;95769.53;;;8.62;48.12
48216;BME280;34005;48.844;10.098;2024-03-08T18:00:08;95774.50;;;8.57;48.12
48216;BME280;34005;48.844;10.098;2024-03-08T18:02:48;95764.47;;;8.54;48.08
48216;BME280;34005;48.844;10.098;2024-03-08T18:05:19;95770.41;;;8.48;48.17
48216;BME280;34005;48.844;10.098;2024-03-08T18:07:50;95756.78;;;8.46;48.55
48216;BME280;34005;48.844;10.098;2024-03-08T18:10:17;95751.19;;;8.42;48.18
48216;BME280;34005;48.844;10.098;2024-03-08T18:12:47;95753.72;;;8.36;48.24
48216;BME280;34005;48.844;10.098;2024-03-08T18:15:17;95751.47;;;8.33;48.48
48216;BME280;34005;48.844;10.098;2024-03-08T18:17:47;95750.22;;;8.29;48.29
48216;BME280;34005;48.844;10.098;2024-03-08T18:20:19;95749.03;;;8.24;48.17
48216;BME280;34005;48.844;10.098;2024-03-08T18:22:52;95747.16;;;8.18;48.36